Time;durP1;ratioP1;P1;durP2;ratioP2;P2;SDS_P1;SDS_P2;PMS_P1;PMS_P2;Temp;Humidity;BMP_temperature;BMP_pressure;BME280_temperature;BME280_humidity;BME280_pressure;Samples;Min_cycle;Max_cycle;Signal;HPM_P1;HPM_P2
2023/05/25 00:00:12;;;;;;;4.47;1.73;;;;;;;;;;5030175;28;20045;-67
2023/05/25 00:02:39;;;;;;;4.00;2.03;;;;;;;;;;5032806;28;20045;-66
2023/05/25 00:05:07;;;;;;;4.35;2.05;;;;;;;;;;5025085;28;20041;-66
2023/05/25 00:07:34;;;;;;;3.38;1.63;;;;;;;;;;5029910;28;20055;-66
2023/05/25 00:10:01;;;;;;;4.05;1.60;;;;;;;;;;5031149;28;20041;-66
2023/05/25 00:12:28;;;;;;;3.60;1.73;;;;;;;;;;5032382;28;20052;-65
2023/05/25 00:14:54;;;;;;;5.53;1.90;;;;;;;;;;5028468;28;20390;-65
2023/05/25 00:17:22;;;;;;;4.40;2.10;;;;;;;;;;5030174;28;20195;-65
2023/05/25 00:19:51;;;;;;;3.53;1.60;;;;;;;;;;5028150;28;20060;-61
2023/05/25 00:22:19;;;;;;;4.18;1.90;;;;;;;;;;5030928;28;20033;-66
2023/05/25 00:24:45;;;;;;;3.65;1.38;;;;;;;;;;5030203;28;20045;-64
2023/05/25 00:27:12;;;;;;;4.50;1.55;;;;;;;;;;5026313;28;20132;-65
2023/05/25 00:29:39;;;;;;;4.80;1.70;;;;;;;;;;5030071;28;20502;-65
2023/05/25 00:32:06;;;;;;;4.75;1.52;;;;;;;;;;5028682;28;20441;-66
2023/05/25 00:34:32;;;;;;;3.40;1.60;;;;;;;;;;5029117;28;20597;-65
2023/05/25 00:36:59;;;;;;;3.67;1.63;;;;;;;;;;5030343;28;20045;-65
2023/05/25 00:39:25;;;;;;;3.38;1.33;;;;;;;;;;5029087;28;20067;-65
2023/05/25 00:41:52;;;;;;;4.05;1.65;;;;;;;;;;5030165;28;20684;-65
2023/05/25 00:44:20;;;;;;;5.07;1.60;;;;;;;;;;5028712;28;20047;-67
2023/05/25 00:46:51;;;;;;;6.10;2.85;;;;;;;;;;5029515;28;20049;-62
2023/05/25 00:49:18;;;;;;;9.50;1.70;;;;;;;;;;5029717;28;20056;-64
2023/05/25 00:51:46;;;;;;;4.22;1.67;;;;;;;;;;5030457;28;20045;-66
2023/05/25 00:54:16;;;;;;;4.95;2.15;;;;;;;;;;5031231;28;20045;-66
2023/05/25 00:57:12;;;;;;;4.90;1.38;;;;;;;;;;5028872;28;20083;-66
2023/05/25 00:59:44;;;;;;;4.05;1.50;;;;;;;;;;5010491;28;20132;-66
2023/05/25 01:02:14;;;;;;;3.92;1.55;;;;;;;;;;5029049;28;20926;-64
2023/05/25 01:04:45;;;;;;;4.70;1.70;;;;;;;;;;4996270;28;20139;-65
2023/05/25 01:07:17;;;;;;;6.05;1.42;;;;;;;;;;5027408;28;20552;-65
2023/05/25 01:09:47;;;;;;;3.38;1.30;;;;;;;;;;5028599;28;20397;-66
2023/05/25 01:12:15;;;;;;;3.45;1.27;;;;;;;;;;5023372;28;20125;-67
2023/05/25 01:14:42;;;;;;;3.45;1.25;;;;;;;;;;5022598;28;20052;-65
2023/05/25 01:17:12;;;;;;;4.40;1.55;;;;;;;;;;5014714;28;20061;-64
2023/05/25 01:19:40;;;;;;;4.05;1.20;;;;;;;;;;5009884;28;20048;-65
2023/05/25 01:22:21;;;;;;;6.20;1.33;;;;;;;;;;5022950;28;20379;-67
2023/05/25 01:25:01;;;;;;;3.55;1.30;;;;;;;;;;5024408;28;20037;-66
2023/05/25 01:27:42;;;;;;;5.47;1.60;;;;;;;;;;5028003;28;20029;-68
2023/05/25 01:30:10;;;;;;;5.95;1.13;;;;;;;;;;5012376;28;20080;-66
2023/05/25 01:32:37;;;;;;;4.10;1.30;;;;;;;;;;5024618;28;20044;-66
2023/05/25 01:35:04;;;;;;;3.47;1.30;;;;;;;;;;5031165;28;20048;-66
2023/05/25 01:37:31;;;;;;;3.50;1.10;;;;;;;;;;5030812;28;20045;-66
2023/05/25 01:40:18;;;;;;;3.42;1.40;;;;;;;;;;4990945;28;20179;-68
2023/05/25 01:42:44;;;;;;;4.45;1.13;;;;;;;;;;4974457;28;20511;-64
2023/05/25 01:45:13;;;;;;;4.32;1.40;;;;;;;;;;4974664;28;20807;-62
2023/05/25 01:47:40;;;;;;;3.10;1.23;;;;;;;;;;4971886;28;20238;-64
2023/05/25 01:50:10;;;;;;;5.80;2.40;;;;;;;;;;4974598;28;20039;-63
2023/05/25 01:52:41;;;;;;;5.20;1.30;;;;;;;;;;4963750;28;20046;-64
2023/05/25 01:55:18;;;;;;;3.63;1.50;;;;;;;;;;4975928;28;20507;-67
2023/05/25 01:57:45;;;;;;;5.53;1.50;;;;;;;;;;4972924;28;20042;-68
2023/05/25 02:00:13;;;;;;;3.13;1.30;;;;;;;;;;4976147;28;20042;-66
2023/05/25 02:02:41;;;;;;;4.72;1.27;;;;;;;;;;4973017;28;20038;-63
2023/05/25 02:05:08;;;;;;;3.15;1.30;;;;;;;;;;4974062;28;20129;-65
2023/05/25 02:07:36;;;;;;;3.95;1.60;;;;;;;;;;4971315;28;20609;-65
2023/05/25 02:10:02;;;;;;;3.50;1.40;;;;;;;;;;4973321;28;20097;-65
2023/05/25 02:12:29;;;;;;;3.50;1.45;;;;;;;;;;4972682;28;20050;-66
2023/05/25 02:14:57;;;;;;;2.67;1.00;;;;;;;;;;4972510;28;20097;-67
2023/05/25 02:17:26;;;;;;;3.97;1.23;;;;;;;;;;4982518;28;20070;-65
2023/05/25 02:19:53;;;;;;;4.10;1.30;;;;;;;;;;5013326;28;20065;-67
2023/05/25 02:22:20;;;;;;;3.35;1.35;;;;;;;;;;5028485;28;20045;-66
2023/05/25 02:24:47;;;;;;;3.10;1.48;;;;;;;;;;5032722;28;20048;-66
2023/05/25 02:27:14;;;;;;;3.67;1.60;;;;;;;;;;5015165;28;20049;-67
2023/05/25 02:29:41;;;;;;;4.50;1.58;;;;;;;;;;5025740;28;20069;-67
2023/05/25 02:32:07;;;;;;;3.33;1.38;;;;;;;;;;5033206;28;20041;-63
2023/05/25 02:34:34;;;;;;;4.43;1.45;;;;;;;;;;5030103;28;20039;-67
2023/05/25 02:37:01;;;;;;;4.97;1.77;;;;;;;;;;5031760;28;20041;-65
2023/05/25 02:39:27;;;;;;;3.17;1.30;;;;;;;;;;5031387;28;20053;-65
2023/05/25 02:41:54;;;;;;;3.78;1.42;;;;;;;;;;5028279;28;20067;-65
2023/05/25 02:44:21;;;;;;;4.78;1.70;;;;;;;;;;5032003;28;20042;-66
2023/05/25 02:46:48;;;;;;;3.53;1.33;;;;;;;;;;5030013;28;20093;-65
2023/05/25 02:49:15;;;;;;;3.42;1.67;;;;;;;;;;5031776;28;20045;-64
2023/05/25 02:51:41;;;;;;;6.05;1.60;;;;;;;;;;5031461;28;20041;-66
2023/05/25 02:54:08;;;;;;;4.82;1.92;;;;;;;;;;5034174;28;20044;-65
2023/05/25 02:56:35;;;;;;;4.10;1.50;;;;;;;;;;5026439;28;20037;-66
2023/05/25 02:59:01;;;;;;;4.57;1.55;;;;;;;;;;5034635;28;20045;-66
2023/05/25 03:01:29;;;;;;;4.30;1.83;;;;;;;;;;5032026;28;20038;-65
2023/05/25 03:03:56;;;;;;;4.60;1.77;;;;;;;;;;5032468;28;20513;-65
2023/05/25 03:06:24;;;;;;;3.58;1.70;;;;;;;;;;5027967;28;20044;-64
2023/05/25 03:08:51;;;;;;;3.45;1.52;;;;;;;;;;5032405;28;20101;-65
2023/05/25 03:11:18;;;;;;;3.97;1.50;;;;;;;;;;5033370;28;20128;-64
2023/05/25 03:13:44;;;;;;;3.47;1.42;;;;;;;;;;5030379;28;20065;-65
2023/05/25 03:16:11;;;;;;;3.17;1.40;;;;;;;;;;5030006;28;20046;-65
2023/05/25 03:18:38;;;;;;;4.45;1.70;;;;;;;;;;5032100;28;21206;-65
2023/05/25 03:21:04;;;;;;;3.47;1.50;;;;;;;;;;5031061;28;20045;-67
2023/05/25 03:23:31;;;;;;;4.53;1.63;;;;;;;;;;5031535;28;20040;-64
2023/05/25 03:25:57;;;;;;;4.93;1.55;;;;;;;;;;5029484;28;20041;-64
2023/05/25 03:28:24;;;;;;;3.55;1.50;;;;;;;;;;5030087;28;20037;-64
2023/05/25 03:30:51;;;;;;;5.30;1.45;;;;;;;;;;5030530;28;20490;-65
2023/05/25 03:33:17;;;;;;;3.78;1.40;;;;;;;;;;5032803;28;20041;-66
2023/05/25 03:35:44;;;;;;;4.72;1.60;;;;;;;;;;5031397;28;20037;-65
2023/05/25 03:38:11;;;;;;;4.68;1.33;;;;;;;;;;5031271;28;20048;-69
2023/05/25 03:40:38;;;;;;;4.25;1.80;;;;;;;;;;5030790;28;20040;-65
2023/05/25 03:43:04;;;;;;;4.88;2.15;;;;;;;;;;5029147;28;20083;-70
2023/05/25 03:45:31;;;;;;;4.32;1.70;;;;;;;;;;5024950;28;20041;-69
2023/05/25 03:47:58;;;;;;;3.75;1.65;;;;;;;;;;5030587;28;20041;-69
2023/05/25 03:50:24;;;;;;;4.40;1.65;;;;;;;;;;5030543;28;20068;-69
2023/05/25 03:52:57;;;;;;;4.22;1.80;;;;;;;;;;5031679;28;20135;-67
2023/05/25 03:55:23;;;;;;;7.07;1.73;;;;;;;;;;5030631;28;20056;-69
2023/05/25 03:57:50;;;;;;;3.53;1.73;;;;;;;;;;5032514;28;20056;-68
2023/05/25 04:00:17;;;;;;;3.83;1.67;;;;;;;;;;5030904;28;20040;-68
2023/05/25 04:02:43;;;;;;;3.72;1.55;;;;;;;;;;5029645;28;20127;-69
2023/05/25 04:05:10;;;;;;;3.45;1.60;;;;;;;;;;5029055;28;20041;-68
2023/05/25 04:07:37;;;;;;;3.63;1.55;;;;;;;;;;5029012;28;20043;-69
2023/05/25 04:10:04;;;;;;;5.35;1.60;;;;;;;;;;5031791;28;20486;-68
2023/05/25 04:12:31;;;;;;;3.58;1.63;;;;;;;;;;5028330;28;20484;-68
2023/05/25 04:14:58;;;;;;;3.55;1.30;;;;;;;;;;5031280;28;20110;-69
2023/05/25 04:17:24;;;;;;;3.33;1.48;;;;;;;;;;5027645;28;20040;-69
2023/05/25 04:19:51;;;;;;;8.80;1.92;;;;;;;;;;5029942;28;20048;-69
2023/05/25 04:22:18;;;;;;;6.72;2.00;;;;;;;;;;5012223;28;20101;-70
2023/05/25 04:24:45;;;;;;;12.00;1.65;;;;;;;;;;5026086;28;20034;-69
2023/05/25 04:27:13;;;;;;;3.50;1.50;;;;;;;;;;5029760;28;20106;-68
2023/05/25 04:29:40;;;;;;;7.05;1.73;;;;;;;;;;5028132;28;20557;-69
2023/05/25 04:32:08;;;;;;;4.50;1.83;;;;;;;;;;5028728;28;20037;-69
2023/05/25 04:34:35;;;;;;;5.05;1.80;;;;;;;;;;5028602;28;20056;-69
2023/05/25 04:37:07;;;;;;;5.88;1.70;;;;;;;;;;5029614;28;20338;-68
2023/05/25 04:39:34;;;;;;;8.03;1.80;;;;;;;;;;5024911;28;20254;-68
2023/05/25 04:42:04;;;;;;;5.68;1.70;;;;;;;;;;5024657;28;20510;-69
2023/05/25 04:44:32;;;;;;;6.45;1.92;;;;;;;;;;5023659;28;20342;-69
2023/05/25 04:47:00;;;;;;;5.55;1.85;;;;;;;;;;5030436;28;20136;-69
2023/05/25 04:49:26;;;;;;;4.43;2.00;;;;;;;;;;5014009;28;20044;-69
2023/05/25 04:51:53;;;;;;;7.57;2.00;;;;;;;;;;5027164;28;20036;-68
2023/05/25 04:54:24;;;;;;;6.22;1.90;;;;;;;;;;5021417;28;20052;-69
2023/05/25 04:56:50;;;;;;;4.72;1.83;;;;;;;;;;5018435;28;20047;-69
2023/05/25 04:59:17;;;;;;;5.65;2.42;;;;;;;;;;5023158;28;20128;-70
2023/05/25 05:01:44;;;;;;;5.57;2.20;;;;;;;;;;5025993;28;20048;-70
2023/05/25 05:04:30;;;;;;;4.32;2.10;;;;;;;;;;4981481;28;20052;-68
2023/05/25 05:06:58;;;;;;;7.30;2.50;;;;;;;;;;4977160;28;20045;-69
2023/05/25 05:09:25;;;;;;;8.70;2.88;;;;;;;;;;4968850;28;20183;-68
2023/05/25 05:11:51;;;;;;;12.90;2.55;;;;;;;;;;4983420;28;20061;-69
2023/05/25 05:14:18;;;;;;;11.18;2.42;;;;;;;;;;4983788;28;20147;-71
2023/05/25 05:16:46;;;;;;;7.88;2.40;;;;;;;;;;4976420;28;20034;-68
2023/05/25 05:19:13;;;;;;;6.40;2.20;;;;;;;;;;4980318;28;20046;-69
2023/05/25 05:21:40;;;;;;;5.22;2.30;;;;;;;;;;4972562;28;20154;-69
2023/05/25 05:24:07;;;;;;;4.50;2.30;;;;;;;;;;4980108;28;20262;-70
2023/05/25 05:26:35;;;;;;;4.75;2.33;;;;;;;;;;4964231;28;20130;-69
2023/05/25 05:29:03;;;;;;;5.50;2.50;;;;;;;;;;4982030;28;20042;-68
2023/05/25 05:31:30;;;;;;;6.72;2.20;;;;;;;;;;4982858;28;20047;-68
2023/05/25 05:33:57;;;;;;;5.22;2.60;;;;;;;;;;4982798;28;21720;-68
2023/05/25 05:36:24;;;;;;;10.02;2.47;;;;;;;;;;5004353;28;20107;-69
2023/05/25 05:38:51;;;;;;;6.18;2.35;;;;;;;;;;5009239;28;20034;-69
2023/05/25 05:41:17;;;;;;;4.55;2.20;;;;;;;;;;5007263;28;20030;-68
2023/05/25 05:43:45;;;;;;;8.50;2.42;;;;;;;;;;5007798;28;20339;-67
2023/05/25 05:46:11;;;;;;;8.13;2.42;;;;;;;;;;5006887;28;20160;-67
2023/05/25 05:48:38;;;;;;;6.82;2.53;;;;;;;;;;5005981;28;20894;-68
2023/05/25 05:51:06;;;;;;;7.68;2.63;;;;;;;;;;5007939;28;20034;-68
2023/05/25 05:53:34;;;;;;;4.95;2.30;;;;;;;;;;5003822;28;20040;-66
2023/05/25 05:56:01;;;;;;;5.72;2.60;;;;;;;;;;5007229;28;20034;-66
2023/05/25 05:58:28;;;;;;;5.57;2.50;;;;;;;;;;5006325;28;20038;-67
2023/05/25 06:00:55;;;;;;;6.10;2.60;;;;;;;;;;5006908;28;20045;-68
2023/05/25 06:03:27;;;;;;;7.30;2.35;;;;;;;;;;5006143;28;20224;-69
2023/05/25 06:05:54;;;;;;;5.40;2.30;;;;;;;;;;4988031;28;20490;-68
2023/05/25 06:08:20;;;;;;;7.70;3.03;;;;;;;;;;5008092;28;20068;-67
2023/05/25 06:10:47;;;;;;;4.95;2.63;;;;;;;;;;5008070;28;20034;-70
2023/05/25 06:13:14;;;;;;;8.80;2.90;;;;;;;;;;5013531;28;20414;-68
2023/05/25 06:15:40;;;;;;;6.72;2.63;;;;;;;;;;5026801;28;20152;-69
2023/05/25 06:18:07;;;;;;;6.30;2.80;;;;;;;;;;5012051;28;20051;-68
2023/05/25 06:20:34;;;;;;;4.13;2.13;;;;;;;;;;5027214;28;20044;-68
2023/05/25 06:23:01;;;;;;;4.25;2.20;;;;;;;;;;5018755;28;20318;-68
2023/05/25 06:25:27;;;;;;;8.38;2.88;;;;;;;;;;5014879;28;20177;-68
2023/05/25 06:27:54;;;;;;;5.53;2.67;;;;;;;;;;5020771;28;20045;-70
2023/05/25 06:30:21;;;;;;;5.43;2.65;;;;;;;;;;5024512;28;20056;-69
2023/05/25 06:32:48;;;;;;;4.43;2.28;;;;;;;;;;5032356;28;20076;-69
2023/05/25 06:35:18;;;;;;;4.40;2.33;;;;;;;;;;5014349;28;20056;-67
2023/05/25 06:37:45;;;;;;;7.78;2.65;;;;;;;;;;5032718;28;20060;-67
2023/05/25 06:40:12;;;;;;;6.63;2.40;;;;;;;;;;5033095;28;20112;-68
2023/05/25 06:42:39;;;;;;;6.30;2.47;;;;;;;;;;5032840;28;20044;-67
2023/05/25 06:45:06;;;;;;;7.90;2.60;;;;;;;;;;5034365;28;20050;-67
2023/05/25 06:47:32;;;;;;;8.20;2.70;;;;;;;;;;5032340;28;20536;-68
2023/05/25 06:49:59;;;;;;;7.05;2.88;;;;;;;;;;5032978;28;20457;-67
2023/05/25 06:52:30;;;;;;;10.75;3.10;;;;;;;;;;5032488;28;20037;-68
2023/05/25 06:54:57;;;;;;;8.40;2.97;;;;;;;;;;5031674;28;20094;-68
2023/05/25 06:57:23;;;;;;;8.70;3.05;;;;;;;;;;5031460;28;20044;-68
2023/05/25 06:59:50;;;;;;;5.95;3.15;;;;;;;;;;5032456;28;20129;-68
2023/05/25 07:02:18;;;;;;;6.13;3.20;;;;;;;;;;5031969;28;20040;-67
2023/05/25 07:04:45;;;;;;;6.30;3.25;;;;;;;;;;5012403;28;20567;-67
2023/05/25 07:07:12;;;;;;;8.85;3.35;;;;;;;;;;5032592;28;20053;-68
2023/05/25 07:09:40;;;;;;;6.65;3.20;;;;;;;;;;5031392;28;20045;-69
2023/05/25 07:12:08;;;;;;;6.22;3.03;;;;;;;;;;5030673;28;20037;-68
2023/05/25 07:14:35;;;;;;;6.30;2.90;;;;;;;;;;5031715;28;20152;-66
2023/05/25 07:17:01;;;;;;;6.82;2.65;;;;;;;;;;5030904;28;20033;-68
2023/05/25 07:19:48;;;;;;;6.68;2.53;;;;;;;;;;4987546;28;20070;-68
2023/05/25 07:22:17;;;;;;;7.22;2.80;;;;;;;;;;4972407;28;20038;-69
2023/05/25 07:24:47;;;;;;;5.80;2.53;;;;;;;;;;4987954;28;20042;-68
2023/05/25 07:27:14;;;;;;;5.90;2.53;;;;;;;;;;4988287;28;20554;-68
2023/05/25 07:29:40;;;;;;;10.05;3.00;;;;;;;;;;4987038;28;20046;-68
2023/05/25 07:32:09;;;;;;;5.57;2.83;;;;;;;;;;4989104;28;20133;-68
2023/05/25 07:34:35;;;;;;;6.13;2.80;;;;;;;;;;4976705;28;20073;-69
2023/05/25 07:37:02;;;;;;;6.07;2.55;;;;;;;;;;4987795;28;20042;-68
2023/05/25 07:39:28;;;;;;;5.65;2.55;;;;;;;;;;4990517;28;20050;-68
2023/05/25 07:41:55;;;;;;;4.60;2.67;;;;;;;;;;4987166;28;20058;-67
2023/05/25 07:44:22;;;;;;;6.30;2.80;;;;;;;;;;4987360;28;20542;-68
2023/05/25 07:46:48;;;;;;;8.30;3.10;;;;;;;;;;4987918;28;20046;-67
2023/05/25 07:49:15;;;;;;;5.55;2.78;;;;;;;;;;4988812;28;20487;-67
2023/05/25 07:51:43;;;;;;;5.43;2.30;;;;;;;;;;4986073;28;20109;-67
2023/05/25 07:54:10;;;;;;;5.70;2.42;;;;;;;;;;4988542;28;20045;-68
2023/05/25 07:56:37;;;;;;;8.98;2.65;;;;;;;;;;4996630;28;20441;-68
2023/05/25 07:59:04;;;;;;;6.00;2.53;;;;;;;;;;5030477;28;20047;-68
2023/05/25 08:01:30;;;;;;;4.53;2.40;;;;;;;;;;5031670;28;20986;-68
2023/05/25 08:03:57;;;;;;;4.80;2.75;;;;;;;;;;5031136;28;20044;-68
2023/05/25 08:06:24;;;;;;;5.53;3.00;;;;;;;;;;5029244;28;20041;-68
2023/05/25 08:08:50;;;;;;;6.15;2.85;;;;;;;;;;5029458;28;20052;-68
2023/05/25 08:11:37;;;;;;;6.32;2.90;;;;;;;;;;4987279;28;20596;-67
2023/05/25 08:14:04;;;;;;;5.57;3.05;;;;;;;;;;4978436;28;20042;-68
2023/05/25 08:16:51;;;;;;;6.20;3.17;;;;;;;;;;4945690;28;20119;-67
2023/05/25 08:19:18;;;;;;;8.35;3.40;;;;;;;;;;4946300;28;20047;-68
2023/05/25 08:21:44;;;;;;;9.32;3.50;;;;;;;;;;4946447;28;20497;-69
2023/05/25 08:24:11;;;;;;;10.85;4.82;;;;;;;;;;4946832;28;20050;-68
2023/05/25 08:26:39;;;;;;;9.95;4.15;;;;;;;;;;4929381;28;20066;-68
2023/05/25 08:29:06;;;;;;;6.28;3.28;;;;;;;;;;4938635;28;20736;-67
2023/05/25 08:31:33;;;;;;;10.77;4.10;;;;;;;;;;4936378;28;20042;-66
2023/05/25 08:34:00;;;;;;;15.15;5.20;;;;;;;;;;4948580;28;20031;-69
2023/05/25 08:36:33;;;;;;;12.45;6.15;;;;;;;;;;4946172;28;20561;-68
2023/05/25 08:39:00;;;;;;;14.85;7.47;;;;;;;;;;4949230;28;20042;-67
2023/05/25 08:41:26;;;;;;;12.65;6.93;;;;;;;;;;4946220;28;20666;-68
2023/05/25 08:43:53;;;;;;;11.65;6.63;;;;;;;;;;4935462;28;20129;-69
2023/05/25 08:46:32;;;;;;;12.27;6.18;;;;;;;;;;4946626;28;20098;-69
2023/05/25 08:49:02;;;;;;;9.63;5.50;;;;;;;;;;4966570;28;20046;-68
2023/05/25 08:51:31;;;;;;;12.15;6.88;;;;;;;;;;4984074;28;20137;-70
2023/05/25 08:53:59;;;;;;;10.80;5.75;;;;;;;;;;4994013;28;20041;-69
2023/05/25 08:56:27;;;;;;;13.75;8.25;;;;;;;;;;5009505;28;20066;-68
2023/05/25 08:58:56;;;;;;;10.18;5.47;;;;;;;;;;5024923;28;20609;-69
2023/05/25 09:01:26;;;;;;;8.68;4.82;;;;;;;;;;5008561;28;20135;-68
2023/05/25 09:03:53;;;;;;;12.30;6.45;;;;;;;;;;5022495;28;20037;-68
2023/05/25 09:06:20;;;;;;;9.35;4.30;;;;;;;;;;5018884;28;20783;-68
2023/05/25 09:08:47;;;;;;;9.65;4.53;;;;;;;;;;5010808;28;20096;-68
2023/05/25 09:11:15;;;;;;;12.05;7.15;;;;;;;;;;5011452;28;20034;-68
2023/05/25 09:13:42;;;;;;;15.45;7.65;;;;;;;;;;5008418;28;20041;-67
2023/05/25 09:16:09;;;;;;;12.52;6.68;;;;;;;;;;5011077;28;20029;-69
2023/05/25 09:18:36;;;;;;;13.40;7.68;;;;;;;;;;5021917;28;20092;-68
2023/05/25 09:21:03;;;;;;;11.23;6.78;;;;;;;;;;5010898;28;20073;-69
2023/05/25 09:23:30;;;;;;;12.85;7.70;;;;;;;;;;5001209;28;20142;-69
2023/05/25 09:25:57;;;;;;;14.45;7.05;;;;;;;;;;5022104;28;20047;-68
2023/05/25 09:28:24;;;;;;;12.77;7.53;;;;;;;;;;5015798;28;20056;-69
2023/05/25 09:30:50;;;;;;;12.80;7.40;;;;;;;;;;5022082;28;20155;-68
2023/05/25 09:33:17;;;;;;;14.07;7.55;;;;;;;;;;5030896;28;20045;-67
2023/05/25 09:35:44;;;;;;;12.68;7.28;;;;;;;;;;5030251;28;20041;-68
2023/05/25 09:38:13;;;;;;;12.63;7.43;;;;;;;;;;5030294;28;20043;-67
2023/05/25 09:40:40;;;;;;;14.93;7.63;;;;;;;;;;5027415;28;20049;-67
2023/05/25 09:43:07;;;;;;;12.77;6.28;;;;;;;;;;5029565;28;20048;-67
2023/05/25 09:45:35;;;;;;;14.07;8.15;;;;;;;;;;5027637;28;20044;-68
2023/05/25 09:48:02;;;;;;;14.07;8.27;;;;;;;;;;5029609;28;20068;-68
2023/05/25 09:50:29;;;;;;;15.88;8.60;;;;;;;;;;5030745;28;20050;-68
2023/05/25 09:53:00;;;;;;;16.20;8.07;;;;;;;;;;5031146;28;20099;-68
2023/05/25 09:55:27;;;;;;;14.20;7.85;;;;;;;;;;5029882;28;20041;-68
2023/05/25 09:57:54;;;;;;;15.07;7.85;;;;;;;;;;5031408;28;20543;-68
2023/05/25 10:00:22;;;;;;;18.33;8.65;;;;;;;;;;5014993;28;20049;-70
2023/05/25 10:02:49;;;;;;;16.05;9.85;;;;;;;;;;5033988;28;20604;-69
2023/05/25 10:05:16;;;;;;;12.68;7.97;;;;;;;;;;5027668;28;20034;-66
2023/05/25 10:07:44;;;;;;;14.63;8.88;;;;;;;;;;5033296;28;20042;-68
2023/05/25 10:10:16;;;;;;;16.10;8.95;;;;;;;;;;5032569;28;20602;-68
2023/05/25 10:12:43;;;;;;;16.95;10.52;;;;;;;;;;5032232;28;20041;-68
2023/05/25 10:15:12;;;;;;;18.92;9.98;;;;;;;;;;5031280;28;20069;-68
2023/05/25 10:17:48;;;;;;;18.15;9.65;;;;;;;;;;5032198;28;20529;-69
2023/05/25 10:20:15;;;;;;;15.90;9.20;;;;;;;;;;5016273;28;20060;-69
2023/05/25 10:22:44;;;;;;;16.45;9.48;;;;;;;;;;5033513;28;20049;-69
2023/05/25 10:25:23;;;;;;;18.85;10.10;;;;;;;;;;5034692;28;20049;-69
2023/05/25 10:28:04;;;;;;;18.17;9.85;;;;;;;;;;5031810;28;20049;-69
2023/05/25 10:30:31;;;;;;;19.63;10.57;;;;;;;;;;5034122;28;20041;-69
2023/05/25 10:32:57;;;;;;;15.50;9.48;;;;;;;;;;5032969;28;20041;-67
2023/05/25 10:35:25;;;;;;;18.00;10.57;;;;;;;;;;5031679;28;20037;-69
2023/05/25 10:37:52;;;;;;;16.58;10.10;;;;;;;;;;5035002;28;20037;-68
2023/05/25 10:40:22;;;;;;;15.20;9.82;;;;;;;;;;5035303;28;20041;-68
2023/05/25 10:42:51;;;;;;;17.77;10.07;;;;;;;;;;5034537;28;20085;-68
2023/05/25 10:45:18;;;;;;;16.40;10.10;;;;;;;;;;5034597;28;20680;-69
2023/05/25 10:47:45;;;;;;;17.83;9.95;;;;;;;;;;5033350;28;20478;-69
2023/05/25 10:50:32;;;;;;;16.25;9.32;;;;;;;;;;5033971;28;20520;-69
2023/05/25 10:53:00;;;;;;;16.83;10.20;;;;;;;;;;5032618;28;20561;-69
2023/05/25 10:55:30;;;;;;;15.93;10.05;;;;;;;;;;5030875;28;20038;-69
2023/05/25 10:58:10;;;;;;;15.50;8.52;;;;;;;;;;5030965;28;20037;-68
2023/05/25 11:00:37;;;;;;;16.02;9.85;;;;;;;;;;5031834;28;20517;-69
2023/05/25 11:03:04;;;;;;;18.88;10.50;;;;;;;;;;5031979;28;20048;-68
2023/05/25 11:05:32;;;;;;;19.88;10.55;;;;;;;;;;5029888;28;20040;-68
2023/05/25 11:07:59;;;;;;;20.67;10.27;;;;;;;;;;5031893;28;20043;-68
2023/05/25 11:10:51;;;;;;;17.42;10.25;;;;;;;;;;5029350;28;20048;-68
2023/05/25 11:13:37;;;;;;;15.73;10.10;;;;;;;;;;5030032;28;20052;-68
2023/05/25 11:16:14;;;;;;;17.70;10.00;;;;;;;;;;5030311;28;20509;-68
2023/05/25 11:18:42;;;;;;;18.10;10.18;;;;;;;;;;5032880;28;20692;-69
2023/05/25 11:21:17;;;;;;;15.20;9.95;;;;;;;;;;5032930;28;20409;-69
2023/05/25 11:23:56;;;;;;;15.40;9.18;;;;;;;;;;5030810;28;20033;-66
2023/05/25 11:26:24;;;;;;;16.38;10.07;;;;;;;;;;5030526;28;20052;-68
2023/05/25 11:28:51;;;;;;;16.25;9.48;;;;;;;;;;5035391;28;20073;-67
2023/05/25 11:31:31;;;;;;;18.73;10.70;;;;;;;;;;5027831;28;20520;-68
2023/05/25 11:34:01;;;;;;;24.08;10.82;;;;;;;;;;5032095;28;20037;-67
2023/05/25 11:36:30;;;;;;;19.05;10.25;;;;;;;;;;5030651;28;20632;-68
2023/05/25 11:39:00;;;;;;;15.48;10.15;;;;;;;;;;5033446;28;20051;-69
2023/05/25 11:41:27;;;;;;;17.20;10.40;;;;;;;;;;5014204;28;20049;-68
2023/05/25 11:43:55;;;;;;;17.83;10.45;;;;;;;;;;5032538;28;20037;-68
2023/05/25 11:46:22;;;;;;;17.50;10.23;;;;;;;;;;5031850;28;20115;-66
2023/05/25 11:48:53;;;;;;;18.60;10.55;;;;;;;;;;5029462;28;20041;-68
2023/05/25 11:51:23;;;;;;;17.63;10.02;;;;;;;;;;5031002;28;20032;-67
2023/05/25 11:53:50;;;;;;;18.25;10.77;;;;;;;;;;5033023;28;20037;-68
2023/05/25 11:56:18;;;;;;;16.67;10.40;;;;;;;;;;5032475;28;20036;-67
2023/05/25 11:58:46;;;;;;;18.23;9.55;;;;;;;;;;5020605;28;20037;-68
2023/05/25 12:01:20;;;;;;;17.95;10.32;;;;;;;;;;5030732;28;20060;-68
2023/05/25 12:03:55;;;;;;;18.33;10.82;;;;;;;;;;5020622;28;20082;-69
2023/05/25 12:06:35;;;;;;;22.20;10.93;;;;;;;;;;5028644;28;20568;-70
2023/05/25 12:09:07;;;;;;;18.45;10.50;;;;;;;;;;5031164;28;20127;-68
2023/05/25 12:11:37;;;;;;;19.48;10.75;;;;;;;;;;5027932;28;20040;-69
2023/05/25 12:14:05;;;;;;;18.13;10.35;;;;;;;;;;5028944;28;20250;-69
2023/05/25 12:16:33;;;;;;;17.90;10.57;;;;;;;;;;5030332;28;20040;-70
2023/05/25 12:19:01;;;;;;;17.77;10.82;;;;;;;;;;5030677;28;20045;-68
2023/05/25 12:21:28;;;;;;;17.02;10.07;;;;;;;;;;4962524;28;20033;-70
2023/05/25 12:23:55;;;;;;;20.45;10.93;;;;;;;;;;4984585;28;20038;-68
2023/05/25 12:26:22;;;;;;;19.98;10.27;;;;;;;;;;4985981;28;20037;-68
2023/05/25 12:29:04;;;;;;;18.00;10.52;;;;;;;;;;4984813;28;20050;-66
2023/05/25 12:31:51;;;;;;;18.00;9.82;;;;;;;;;;4945906;28;20046;-64
2023/05/25 12:34:19;;;;;;;20.42;10.35;;;;;;;;;;4943973;28;20035;-65
2023/05/25 12:36:50;;;;;;;20.13;11.52;;;;;;;;;;4945057;28;20038;-66
2023/05/25 12:39:18;;;;;;;21.30;11.35;;;;;;;;;;4943310;28;20208;-69
2023/05/25 12:41:44;;;;;;;19.73;10.90;;;;;;;;;;4944234;28;20122;-64
2023/05/25 12:44:20;;;;;;;18.33;10.38;;;;;;;;;;4947340;28;20118;-65
2023/05/25 12:46:47;;;;;;;19.65;10.55;;;;;;;;;;4946683;28;20031;-60
2023/05/25 12:49:30;;;;;;;20.70;11.45;;;;;;;;;;4944587;28;20039;-69
2023/05/25 12:51:57;;;;;;;20.75;11.48;;;;;;;;;;4957596;28;20095;-68
2023/05/25 12:54:33;;;;;;;17.40;11.15;;;;;;;;;;4984384;28;20137;-69
2023/05/25 12:57:01;;;;;;;18.13;11.60;;;;;;;;;;4984947;28;20038;-68
2023/05/25 12:59:29;;;;;;;20.25;11.40;;;;;;;;;;4985611;28;20052;-69
2023/05/25 13:01:55;;;;;;;20.73;12.00;;;;;;;;;;4986325;28;20034;-62
2023/05/25 13:04:22;;;;;;;19.38;10.98;;;;;;;;;;4986392;28;20041;-63
2023/05/25 13:06:49;;;;;;;24.17;11.85;;;;;;;;;;4986453;28;20038;-60
2023/05/25 13:09:16;;;;;;;23.63;12.02;;;;;;;;;;5008823;28;20045;-63
2023/05/25 13:11:43;;;;;;;22.52;11.00;;;;;;;;;;5030220;28;20072;-61
2023/05/25 13:14:10;;;;;;;19.38;11.20;;;;;;;;;;5029600;28;20406;-67
2023/05/25 13:16:36;;;;;;;18.52;10.57;;;;;;;;;;5029507;28;20052;-64
2023/05/25 13:19:03;;;;;;;20.55;11.43;;;;;;;;;;5031027;28;20899;-65
2023/05/25 13:21:30;;;;;;;18.23;10.38;;;;;;;;;;5029914;28;20037;-64
2023/05/25 13:23:56;;;;;;;18.33;10.45;;;;;;;;;;5026987;28;20033;-65
2023/05/25 13:26:24;;;;;;;18.50;10.85;;;;;;;;;;5029275;28;20029;-65
2023/05/25 13:28:51;;;;;;;38.97;13.05;;;;;;;;;;5030433;28;20037;-63
2023/05/25 13:31:17;;;;;;;21.23;11.52;;;;;;;;;;5030242;28;20069;-66
2023/05/25 13:33:44;;;;;;;18.73;10.88;;;;;;;;;;5028505;28;20792;-65
2023/05/25 13:36:11;;;;;;;22.88;12.10;;;;;;;;;;5026587;28;20120;-64
2023/05/25 13:38:38;;;;;;;20.42;10.93;;;;;;;;;;5028582;28;20033;-64
2023/05/25 13:41:04;;;;;;;17.58;10.35;;;;;;;;;;5027571;28;20543;-64
2023/05/25 13:43:31;;;;;;;20.27;10.75;;;;;;;;;;5028695;28;20048;-63
2023/05/25 13:45:58;;;;;;;19.27;11.80;;;;;;;;;;5029506;28;20045;-60
2023/05/25 13:48:24;;;;;;;21.33;11.85;;;;;;;;;;5028901;28;20038;-63
2023/05/25 13:50:51;;;;;;;19.48;11.20;;;;;;;;;;5029177;28;20071;-64
2023/05/25 13:53:17;;;;;;;18.73;11.10;;;;;;;;;;5031440;28;20042;-63
2023/05/25 13:55:44;;;;;;;19.75;11.80;;;;;;;;;;5028778;28;20122;-64
2023/05/25 13:58:11;;;;;;;22.88;11.93;;;;;;;;;;5030242;28;20037;-64
2023/05/25 14:00:37;;;;;;;21.40;11.70;;;;;;;;;;5027626;28;20064;-62
2023/05/25 14:03:05;;;;;;;23.13;11.57;;;;;;;;;;5030070;28;20083;-68
2023/05/25 14:05:31;;;;;;;22.42;11.93;;;;;;;;;;5026690;28;20130;-68
2023/05/25 14:08:01;;;;;;;21.33;11.75;;;;;;;;;;5029471;28;20045;-68
2023/05/25 14:10:28;;;;;;;18.23;11.27;;;;;;;;;;5027835;28;20092;-67
2023/05/25 14:12:54;;;;;;;22.88;12.77;;;;;;;;;;5029125;28;20433;-68
2023/05/25 14:15:21;;;;;;;21.23;11.48;;;;;;;;;;5028062;28;20532;-69
2023/05/25 14:17:48;;;;;;;20.08;11.95;;;;;;;;;;5030596;28;20048;-68
2023/05/25 14:20:19;;;;;;;20.60;11.98;;;;;;;;;;5031362;28;20052;-69
2023/05/25 14:22:46;;;;;;;22.38;12.30;;;;;;;;;;5013401;28;20046;-69
2023/05/25 14:25:13;;;;;;;21.00;12.02;;;;;;;;;;5029805;28;20481;-68
2023/05/25 14:27:39;;;;;;;22.48;13.10;;;;;;;;;;5031308;28;20114;-70
2023/05/25 14:30:06;;;;;;;18.70;12.13;;;;;;;;;;5029073;28;20037;-69
2023/05/25 14:32:33;;;;;;;19.95;12.43;;;;;;;;;;5030249;28;20150;-69
2023/05/25 14:34:59;;;;;;;23.60;11.82;;;;;;;;;;5031666;28;20126;-69
2023/05/25 14:37:26;;;;;;;21.67;12.75;;;;;;;;;;5032076;28;20148;-69
2023/05/25 14:39:53;;;;;;;20.95;12.77;;;;;;;;;;5033350;28;20060;-69